Kobrin, Belarus
Current Conditions -  °F | °C
As of 11:10 AM on Monday 24 Nov 2014 (Local Time) from UMBB Reporting Station
Haze Haze  
Wind Chill: 22°   Ceiling: 700
Heat Index: 30°   Visibility: 1.6mi
Dew Point: 28°   Wind: 9mph
Humidity: 93%   Direction: 150°SSE
Pressure: 30.5"   Gusts: NA
Location:  52.21°N, 24.36°E
Report Text: UMBB 240910Z 15004MPS 2600 BR OVC007 M01/M02 Q1033 R11/290050NOSIG
Loading
Personal Weather Stations






























Interactive Weather Map New forecast layout! Learn more

10-Day Weather Forecast

Advertisements
Track Severe Weather on mobile